createdAt,value
2022-08-28T00:00:11.255Z,2.95
2022-08-28T00:02:38.031Z,2.90
2022-08-28T00:05:06.096Z,2.72
2022-08-28T00:07:34.649Z,3.80
2022-08-28T00:10:01.224Z,3.22
2022-08-28T00:12:27.733Z,3.00
2022-08-28T00:14:54.226Z,2.83
2022-08-28T00:17:20.758Z,2.80
2022-08-28T00:19:47.461Z,2.80
2022-08-28T00:22:14.070Z,2.75
2022-08-28T00:24:44.534Z,2.80
2022-08-28T00:27:29.655Z,2.83
2022-08-28T00:29:56.192Z,2.67
2022-08-28T00:32:25.843Z,2.85
2022-08-28T00:34:52.424Z,3.20
2022-08-28T00:37:19.032Z,2.83
2022-08-28T00:39:48.928Z,2.28
2022-08-28T00:42:15.364Z,2.70
2022-08-28T00:44:41.859Z,2.80
2022-08-28T00:47:08.632Z,3.28
2022-08-28T00:49:38.164Z,2.85
2022-08-28T00:52:11.944Z,2.70
2022-08-28T00:54:56.886Z,3.35
2022-08-28T00:57:31.604Z,2.90
2022-08-28T00:59:58.257Z,3.00
2022-08-28T01:02:29.297Z,3.10
2022-08-28T01:04:58.159Z,2.92
2022-08-28T01:07:24.768Z,3.13
2022-08-28T01:09:54.081Z,3.13
2022-08-28T01:12:23.342Z,3.40
2022-08-28T01:14:51.044Z,3.25
2022-08-28T01:17:30.729Z,2.97
2022-08-28T01:20:02.892Z,3.20
2022-08-28T01:22:38.998Z,2.67
2022-08-28T01:25:13.238Z,3.00
2022-08-28T01:27:45.473Z,3.00
2022-08-28T01:30:24.543Z,2.88
2022-08-28T01:32:57.845Z,2.92
2022-08-28T01:35:29.967Z,2.97
2022-08-28T01:38:04.682Z,3.00
2022-08-28T01:40:38.026Z,2.60
2022-08-28T01:43:14.596Z,2.63
2022-08-28T01:45:48.547Z,3.00
2022-08-28T01:48:18.864Z,2.70
2022-08-28T01:50:45.691Z,2.60
2022-08-28T01:53:15.210Z,2.97
2022-08-28T01:55:45.483Z,2.65
2022-08-28T01:58:12.780Z,2.83
2022-08-28T02:00:43.137Z,2.90
2022-08-28T02:03:17.999Z,2.75
2022-08-28T02:05:46.801Z,2.53
2022-08-28T02:08:19.887Z,2.70
2022-08-28T02:10:47.133Z,2.75
2022-08-28T02:13:16.644Z,3.28
2022-08-28T02:15:44.220Z,2.70
2022-08-28T02:18:14.552Z,2.85
2022-08-28T02:20:42.930Z,2.78
2022-08-28T02:23:12.461Z,3.05
2022-08-28T02:25:39.532Z,2.80
2022-08-28T02:28:12.798Z,2.97
2022-08-28T02:30:42.022Z,2.95
2022-08-28T02:33:08.693Z,2.95
2022-08-28T02:35:38.016Z,2.95
2022-08-28T02:38:07.037Z,2.78
2022-08-28T02:40:37.067Z,2.63
2022-08-28T02:43:16.244Z,3.30
2022-08-28T02:45:45.729Z,2.75
2022-08-28T02:48:17.640Z,3.13
2022-08-28T02:50:46.188Z,2.88
2022-08-28T02:53:16.903Z,2.70
2022-08-28T02:55:44.828Z,3.25
2022-08-28T02:58:11.487Z,3.13
2022-08-28T03:00:38.102Z,3.10
2022-08-28T03:03:05.281Z,2.70
2022-08-28T03:05:31.769Z,3.05
2022-08-28T03:07:59.492Z,3.00
2022-08-28T03:10:28.483Z,3.13
2022-08-28T03:12:55.011Z,2.53
2022-08-28T03:15:21.763Z,2.75
2022-08-28T03:17:50.844Z,2.88
2022-08-28T03:20:27.342Z,2.72
2022-08-28T03:23:12.267Z,2.53
2022-08-28T03:25:40.966Z,2.60
2022-08-28T03:28:07.422Z,2.63
2022-08-28T03:30:35.980Z,2.83
2022-08-28T03:33:09.865Z,2.60
2022-08-28T03:35:37.574Z,2.72
2022-08-28T03:38:05.034Z,2.97
2022-08-28T03:40:33.832Z,2.88
2022-08-28T03:43:12.630Z,3.00
2022-08-28T03:45:43.107Z,2.95
2022-08-28T03:48:14.214Z,2.70
2022-08-28T03:50:45.386Z,2.60
2022-08-28T03:53:15.564Z,2.80
2022-08-28T03:55:48.980Z,2.38
2022-08-28T03:58:19.919Z,2.50
2022-08-28T04:03:21.021Z,2.60
2022-08-28T04:05:50.187Z,3.00
2022-08-28T04:08:33.322Z,2.58
2022-08-28T04:11:00.954Z,2.83
2022-08-28T04:13:45.488Z,3.10
2022-08-28T04:16:26.265Z,2.75
2022-08-28T04:19:07.964Z,2.63
2022-08-28T04:21:38.088Z,2.70
2022-08-28T04:24:17.775Z,2.50
2022-08-28T04:26:46.414Z,3.17
2022-08-28T04:29:18.002Z,2.80
2022-08-28T04:31:49.355Z,3.58
2022-08-28T04:34:18.866Z,3.00
2022-08-28T04:37:04.517Z,2.78
2022-08-28T04:39:59.530Z,2.63
2022-08-28T04:42:44.828Z,2.40
2022-08-28T04:45:26.035Z,2.88
2022-08-28T04:48:05.379Z,2.92
2022-08-28T04:50:43.565Z,3.05
2022-08-28T04:53:43.820Z,2.97
2022-08-28T04:56:17.588Z,2.85
2022-08-28T05:01:47.660Z,2.83
2022-08-28T05:04:33.766Z,2.58
2022-08-28T05:07:21.101Z,3.22
2022-08-28T05:10:00.654Z,3.05
2022-08-28T05:12:49.076Z,3.75
2022-08-28T05:18:07.764Z,3.00
2022-08-28T05:20:55.435Z,2.70
2022-08-28T05:23:54.796Z,2.80
2022-08-28T05:26:40.431Z,3.30
2022-08-28T05:29:35.934Z,3.00
2022-08-28T05:32:14.246Z,3.00
2022-08-28T05:34:46.747Z,2.83
2022-08-28T05:37:33.032Z,2.95
2022-08-28T05:40:05.948Z,3.17
2022-08-28T05:42:51.470Z,2.80
2022-08-28T05:45:32.640Z,2.70
2022-08-28T05:48:26.943Z,2.70
2022-08-28T05:51:40.554Z,3.22
2022-08-28T05:54:17.572Z,2.85
2022-08-28T05:56:51.614Z,3.03
2022-08-28T05:59:44.687Z,2.72
2022-08-28T06:02:54.762Z,3.90
2022-08-28T06:08:58.131Z,2.63
2022-08-28T06:11:24.601Z,2.95
2022-08-28T06:13:53.831Z,2.95
2022-08-28T06:17:23.445Z,3.20
2022-08-28T06:20:01.278Z,2.85
2022-08-28T06:22:51.705Z,3.35
2022-08-28T06:25:48.834Z,3.10
2022-08-28T06:28:43.922Z,2.72
2022-08-28T06:34:55.490Z,3.05
2022-08-28T06:38:28.808Z,3.15
2022-08-28T06:41:03.488Z,3.08
2022-08-28T06:43:36.297Z,3.10
2022-08-28T06:46:17.809Z,2.92
2022-08-28T06:48:57.004Z,3.13
2022-08-28T06:52:03.170Z,2.78
2022-08-28T06:54:34.256Z,2.60
2022-08-28T07:04:00.508Z,2.92
2022-08-28T07:06:53.858Z,2.38
2022-08-28T07:10:04.001Z,2.67
2022-08-28T07:16:21.612Z,2.45
2022-08-28T07:19:14.018Z,2.42
2022-08-28T07:22:13.105Z,2.42
2022-08-28T07:24:56.029Z,2.47
2022-08-28T07:27:54.837Z,2.50
2022-08-28T07:31:01.642Z,2.33
2022-08-28T07:36:58.602Z,2.28
2022-08-28T07:39:45.881Z,2.20
2022-08-28T07:42:40.318Z,2.67
2022-08-28T07:45:07.077Z,3.17
2022-08-28T07:47:33.576Z,2.38
2022-08-28T07:50:01.420Z,2.22
2022-08-28T07:52:28.155Z,1.80
2022-08-28T07:54:55.349Z,1.77
2022-08-28T07:57:22.906Z,1.58
2022-08-28T07:59:50.022Z,2.03
2022-08-28T08:02:16.584Z,1.92
2022-08-28T08:04:42.972Z,1.92
2022-08-28T08:07:09.606Z,1.95
2022-08-28T08:09:38.101Z,2.50
2022-08-28T08:12:05.618Z,2.50
2022-08-28T08:14:32.263Z,1.75
2022-08-28T08:17:02.159Z,2.00
2022-08-28T08:19:28.583Z,1.95
2022-08-28T08:21:55.788Z,1.85
2022-08-28T08:24:25.836Z,1.95
2022-08-28T08:26:59.501Z,1.92
2022-08-28T08:29:28.451Z,2.03
2022-08-28T08:32:02.659Z,1.70
2022-08-28T08:34:29.089Z,1.70
2022-08-28T08:36:55.589Z,1.77
2022-08-28T08:39:22.051Z,1.80
2022-08-28T08:41:59.838Z,1.83
2022-08-28T08:44:36.181Z,1.60
2022-08-28T08:47:35.048Z,2.42
2022-08-28T08:50:17.873Z,1.50
2022-08-28T08:52:58.105Z,1.40
2022-08-28T08:55:50.268Z,1.85
2022-08-28T08:58:47.684Z,1.45
2022-08-28T09:01:52.024Z,1.50
2022-08-28T09:05:33.585Z,1.45
2022-08-28T09:12:06.813Z,1.52
2022-08-28T09:15:34.064Z,1.92
2022-08-28T09:20:02.541Z,1.60
2022-08-28T09:22:22.925Z,1.70
2022-08-28T09:25:15.500Z,1.63
2022-08-28T09:28:15.209Z,1.80
2022-08-28T09:37:33.331Z,2.17
2022-08-28T09:44:02.323Z,1.45
2022-08-28T09:56:31.166Z,1.75
2022-08-28T10:01:48.951Z,1.52
2022-08-28T10:07:54.904Z,1.55
2022-08-28T10:11:29.557Z,1.65
2022-08-28T10:14:38.314Z,1.52
2022-08-28T10:17:52.678Z,1.45
2022-08-28T10:24:54.616Z,1.45
2022-08-28T10:38:26.129Z,1.67
2022-08-28T10:42:19.293Z,1.85
2022-08-28T10:45:46.246Z,1.52
2022-08-28T10:49:24.701Z,1.70
2022-08-28T10:56:16.928Z,1.73
2022-08-28T11:03:35.662Z,1.70
2022-08-28T11:10:05.454Z,1.80
2022-08-28T11:13:48.220Z,1.50
2022-08-28T11:20:49.455Z,1.90
2022-08-28T11:25:56.712Z,1.45
2022-08-28T12:11:41.837Z,1.70
2022-08-28T13:45:20.667Z,1.75
2022-08-28T13:48:39.481Z,1.73
2022-08-28T13:52:15.490Z,1.70
2022-08-28T13:55:21.306Z,1.75
2022-08-28T13:58:15.243Z,1.95
2022-08-28T14:02:02.436Z,1.88
2022-08-28T14:08:45.643Z,1.90
2022-08-28T14:11:44.049Z,1.80
2022-08-28T14:14:40.195Z,2.00
2022-08-28T14:21:16.641Z,2.05
2022-08-28T14:27:30.933Z,2.00
2022-08-28T14:33:49.431Z,1.58
2022-08-28T14:40:14.373Z,1.80
2022-08-28T14:42:59.638Z,2.10
2022-08-28T14:56:45.123Z,1.80
2022-08-28T14:59:43.988Z,2.08
2022-08-28T15:23:22.005Z,1.65
2022-08-28T15:25:48.176Z,2.38
2022-08-28T15:40:34.629Z,2.05
2022-08-28T16:06:43.662Z,2.03
2022-08-28T16:33:14.171Z,1.73
2022-08-28T16:40:20.513Z,1.77
2022-08-28T17:36:42.554Z,2.50
2022-08-28T17:48:06.934Z,1.90
2022-08-28T17:53:35.267Z,2.10
2022-08-28T18:00:52.465Z,2.03
2022-08-28T18:05:14.137Z,1.73
2022-08-28T18:12:01.240Z,1.70
2022-08-28T18:19:20.043Z,2.03
2022-08-28T18:22:50.896Z,1.90
2022-08-28T18:30:37.930Z,1.73
2022-08-28T18:41:45.655Z,1.80
2022-08-28T18:43:48.751Z,1.73
2022-08-28T18:47:31.403Z,2.30
2022-08-28T18:50:18.038Z,1.70
2022-08-28T18:53:10.360Z,1.80
2022-08-28T18:55:39.653Z,1.75
2022-08-28T18:58:16.916Z,1.90
2022-08-28T19:01:03.428Z,2.10
2022-08-28T19:03:30.606Z,1.83
2022-08-28T19:06:22.647Z,1.85
2022-08-28T19:08:59.581Z,2.15
2022-08-28T19:18:40.329Z,1.95
2022-08-28T19:21:37.665Z,2.00
2022-08-28T19:37:24.769Z,1.83
2022-08-28T19:40:48.872Z,2.10
2022-08-28T19:43:53.802Z,2.55
2022-08-28T19:50:08.155Z,2.05
2022-08-28T19:53:29.670Z,2.17
2022-08-28T19:56:02.973Z,1.90
2022-08-28T19:59:18.657Z,2.05
2022-08-28T20:02:43.191Z,2.08
2022-08-28T20:23:56.962Z,2.10
2022-08-28T20:36:28.382Z,2.40
2022-08-28T20:39:21.143Z,2.10
2022-08-28T20:45:34.082Z,2.25
2022-08-28T20:52:23.828Z,2.20
2022-08-28T20:55:33.987Z,2.28
2022-08-28T20:59:11.275Z,2.40
2022-08-28T21:01:59.872Z,2.00
2022-08-28T21:05:57.890Z,2.30
2022-08-28T21:11:57.641Z,2.20
2022-08-28T21:24:23.786Z,2.53
2022-08-28T21:27:12.864Z,1.83
2022-08-28T21:29:41.630Z,2.10
2022-08-28T21:32:33.832Z,2.20
2022-08-28T21:35:16.990Z,1.90
2022-08-28T21:37:46.694Z,2.10
2022-08-28T21:40:35.278Z,1.80
2022-08-28T21:43:07.033Z,1.83
2022-08-28T21:45:45.469Z,1.92
2022-08-28T21:48:17.660Z,2.25
2022-08-28T21:50:54.257Z,1.77
2022-08-28T21:53:27.220Z,2.60
2022-08-28T21:56:04.882Z,1.95
2022-08-28T21:58:36.062Z,2.00
2022-08-28T22:01:35.221Z,2.08
2022-08-28T22:04:26.749Z,2.40
2022-08-28T22:06:57.211Z,2.08
2022-08-28T22:09:31.403Z,2.35
2022-08-28T22:15:48.630Z,2.10
2022-08-28T22:18:33.986Z,2.42
2022-08-28T22:21:30.016Z,2.03
2022-08-28T22:24:15.590Z,2.03
2022-08-28T22:26:57.456Z,2.40
2022-08-28T22:29:42.027Z,2.05
2022-08-28T22:32:13.731Z,2.03
2022-08-28T22:34:49.379Z,1.83
2022-08-28T22:37:32.850Z,2.05
2022-08-28T22:40:17.059Z,2.00
2022-08-28T22:42:43.978Z,2.47
2022-08-28T22:45:21.469Z,2.50
2022-08-28T22:47:55.018Z,2.53
2022-08-28T22:50:38.371Z,2.13
2022-08-28T22:53:20.802Z,2.00
2022-08-28T22:55:57.721Z,2.30
2022-08-28T22:58:33.004Z,2.40
2022-08-28T23:01:08.252Z,2.35
2022-08-28T23:04:03.313Z,2.20
2022-08-28T23:06:34.950Z,2.00
2022-08-28T23:09:06.415Z,2.08
2022-08-28T23:11:42.186Z,2.10
2022-08-28T23:14:11.026Z,2.15
2022-08-28T23:16:52.484Z,2.03
2022-08-28T23:19:28.576Z,1.90
2022-08-28T23:21:59.870Z,2.30
2022-08-28T23:24:38.117Z,2.45
2022-08-28T23:27:35.483Z,2.00
2022-08-28T23:30:06.848Z,1.85
2022-08-28T23:32:41.300Z,2.17
2022-08-28T23:35:30.462Z,2.28
2022-08-28T23:37:59.609Z,2.30
2022-08-28T23:40:28.774Z,2.22
2022-08-28T23:42:59.256Z,2.40
2022-08-28T23:45:30.656Z,2.00
2022-08-28T23:48:11.074Z,2.05
2022-08-28T23:50:42.308Z,2.10
2022-08-28T23:53:12.121Z,1.98
2022-08-28T23:55:50.871Z,1.85
2022-08-28T23:58:20.629Z,2.00
